Time;durP1;ratioP1;P1;durP2;ratioP2;P2;SDS_P1;SDS_P2;PMS_P1;PMS_P2;Temp;Humidity;BMP_temperature;BMP_pressure;BME280_temperature;BME280_humidity;BME280_pressure;Samples;Min_cycle;Max_cycle;Signal;HPM_P1;HPM_P2
2022/01/04 00:01:15;;;;;;;4.92;2.55;;;;;;;7.61;75.79;99077.81;1785463;80;21301;-71
2022/01/04 00:03:42;;;;;;;6.10;2.50;;;;;;;7.60;76.08;99078.08;1785340;80;20975;-72
2022/01/04 00:06:09;;;;;;;5.30;2.75;;;;;;;7.59;76.33;99075.95;1785274;80;20995;-71
2022/01/04 00:08:36;;;;;;;4.70;2.70;;;;;;;7.61;76.55;99081.02;1785322;80;21050;-71
2022/01/04 00:11:20;;;;;;;6.92;3.30;;;;;;;7.57;76.78;99076.78;1785568;80;21131;-71
2022/01/04 00:13:47;;;;;;;5.75;2.60;;;;;;;7.58;76.91;99074.91;1785877;80;21046;-71
2022/01/04 00:16:13;;;;;;;4.65;2.80;;;;;;;7.59;76.94;99073.84;1785772;80;21226;-71
2022/01/04 00:18:41;;;;;;;4.83;2.75;;;;;;;7.61;76.98;99077.02;1785869;80;20949;-72
2022/01/04 00:21:09;;;;;;;4.92;2.72;;;;;;;7.61;77.05;99081.80;1785428;80;21090;-72
2022/01/04 00:23:35;;;;;;;5.25;2.80;;;;;;;7.59;77.08;99083.92;1785723;80;21459;-71
2022/01/04 00:26:04;;;;;;;5.20;2.85;;;;;;;7.59;77.09;99085.25;1785174;80;20947;-71
2022/01/04 00:28:31;;;;;;;5.97;2.98;;;;;;;7.58;77.15;99085.00;1785427;80;20955;-72
2022/01/04 00:30:58;;;;;;;5.47;3.00;;;;;;;7.57;77.21;99090.06;1785158;80;21121;-71
2022/01/04 00:33:24;;;;;;;4.95;2.90;;;;;;;7.56;77.17;99094.31;1785495;80;20943;-71
2022/01/04 00:35:50;;;;;;;5.45;3.08;;;;;;;7.55;77.12;99092.19;1785275;80;21143;-72
2022/01/04 00:38:17;;;;;;;5.30;3.15;;;;;;;7.56;77.03;99092.98;1785168;80;21078;-71
2022/01/04 00:40:44;;;;;;;5.80;3.22;;;;;;;7.58;76.93;99098.28;1785414;80;21016;-73
2022/01/04 00:43:10;;;;;;;5.62;2.92;;;;;;;7.57;76.88;99103.35;1785319;80;21576;-72
2022/01/04 00:45:37;;;;;;;5.12;2.62;;;;;;;7.55;76.83;99109.45;1785381;80;21014;-72
2022/01/04 00:50:36;;;;;;;4.05;2.58;;;;;;;7.55;76.75;99112.11;1785187;80;21643;-71
2022/01/04 00:53:03;;;;;;;4.50;2.77;;;;;;;7.56;76.71;99116.35;1785051;79;20944;-71
2022/01/04 00:55:31;;;;;;;6.80;3.08;;;;;;;7.57;76.53;99111.83;1784973;80;21089;-70
2022/01/04 00:57:57;;;;;;;4.83;2.90;;;;;;;7.57;76.46;99111.32;1785066;80;21035;-73
2022/01/04 01:00:24;;;;;;;5.22;2.72;;;;;;;7.58;76.35;99111.57;1785310;80;21131;-71
2022/01/04 01:02:51;;;;;;;4.47;2.50;;;;;;;7.59;76.26;99121.12;1785312;80;21030;-72
2022/01/04 01:05:18;;;;;;;5.35;2.52;;;;;;;7.61;76.14;99111.03;1784930;80;21046;-71
2022/01/04 01:07:45;;;;;;;4.33;2.30;;;;;;;7.60;75.96;99110.78;1785376;80;21046;-72
2022/01/04 01:10:39;;;;;;;6.17;2.20;;;;;;;7.59;75.83;99108.38;1785451;80;21070;-71
2022/01/04 01:12:50;;;;;;;5.20;2.98;;;;;;;7.59;75.72;99113.69;1785115;80;21168;-72
2022/01/04 01:15:19;;;;;;;4.08;2.30;;;;;;;7.55;75.57;99110.78;1785107;80;21055;-70
2022/01/04 01:17:45;;;;;;;4.55;2.20;;;;;;;7.51;75.52;99109.75;1785236;80;21016;-71
2022/01/04 01:20:14;;;;;;;3.83;1.98;;;;;;;7.48;75.54;99115.60;1785215;80;21506;-71
2022/01/04 01:22:42;;;;;;;3.50;2.27;;;;;;;7.43;75.59;99120.38;1785238;80;20932;-71
2022/01/04 01:25:09;;;;;;;5.60;2.20;;;;;;;7.43;75.66;99112.95;1785605;80;21492;-71
2022/01/04 01:27:36;;;;;;;4.10;2.17;;;;;;;7.40;75.68;99114.81;1785115;80;21479;-72
2022/01/04 01:30:04;;;;;;;4.42;2.20;;;;;;;7.36;75.69;99117.22;1785106;80;21058;-71
2022/01/04 01:32:31;;;;;;;4.80;2.60;;;;;;;7.35;75.69;99121.49;1785386;80;20987;-72
2022/01/04 01:34:57;;;;;;;4.05;2.17;;;;;;;7.29;75.72;99120.70;1785474;80;21051;-71
2022/01/04 01:37:26;;;;;;;5.40;2.27;;;;;;;7.24;75.86;99128.70;1785358;80;20932;-71
2022/01/04 01:39:54;;;;;;;4.30;2.50;;;;;;;7.22;75.95;99127.62;1785125;80;20991;-72
2022/01/04 01:42:21;;;;;;;4.67;2.40;;;;;;;7.23;76.07;99141.16;1785219;80;21439;-71
2022/01/04 01:44:48;;;;;;;3.92;2.30;;;;;;;7.21;76.19;99135.34;1785573;80;21002;-71
2022/01/04 01:47:14;;;;;;;4.87;2.50;;;;;;;7.21;76.20;99135.34;1785590;80;21121;-71
2022/01/04 01:49:43;;;;;;;4.33;2.25;;;;;;;7.21;76.24;99135.88;1785197;80;21039;-71
2022/01/04 01:52:10;;;;;;;4.33;2.50;;;;;;;7.20;76.29;99136.92;1785390;80;20992;-71
2022/01/04 01:54:36;;;;;;;4.80;2.25;;;;;;;7.18;76.30;99137.73;1785696;80;20988;-71
2022/01/04 01:57:04;;;;;;;4.00;2.10;;;;;;;7.15;76.37;99139.60;1785221;80;20975;-71
2022/01/04 01:59:31;;;;;;;4.35;2.50;;;;;;;7.12;76.49;99137.48;1785428;80;21102;-71
2022/01/04 02:01:57;;;;;;;4.12;2.20;;;;;;;7.06;76.64;99132.70;1785575;80;21041;-71
2022/01/04 02:04:25;;;;;;;5.20;2.55;;;;;;;7.02;76.79;99138.30;1785690;80;20940;-71
2022/01/04 02:06:52;;;;;;;4.20;2.37;;;;;;;6.98;77.00;99142.55;1785412;80;21011;-71
2022/01/04 02:09:19;;;;;;;4.17;2.20;;;;;;;6.96;77.26;99149.98;1785469;80;21027;-71
2022/01/04 02:11:48;;;;;;;4.40;2.30;;;;;;;6.92;77.67;99136.98;1785406;80;21486;-71
2022/01/04 02:14:16;;;;;;;4.65;2.58;;;;;;;6.94;77.88;99147.61;1785428;80;21137;-71
2022/01/04 02:16:43;;;;;;;4.20;2.40;;;;;;;6.95;78.17;99150.52;1785354;80;21079;-72
2022/01/04 02:19:10;;;;;;;5.03;2.42;;;;;;;6.98;78.37;99143.88;1785463;80;21503;-71
2022/01/04 02:21:36;;;;;;;3.80;2.37;;;;;;;7.01;78.53;99142.81;1785333;80;20959;-72
2022/01/04 02:24:04;;;;;;;4.28;2.72;;;;;;;7.02;78.66;99151.56;1785537;80;20952;-72
2022/01/04 02:26:32;;;;;;;5.72;3.10;;;;;;;7.02;78.78;99151.03;1785404;80;21529;-72
2022/01/04 02:28:59;;;;;;;5.08;2.75;;;;;;;7.03;78.92;99149.17;1785394;80;21030;-72
2022/01/04 02:31:27;;;;;;;5.05;2.52;;;;;;;7.03;79.03;99149.96;1785327;80;21490;-72
2022/01/04 02:33:53;;;;;;;3.70;2.50;;;;;;;7.04;79.06;99146.27;1785350;80;21204;-72
2022/01/04 02:36:20;;;;;;;5.95;2.45;;;;;;;7.05;79.08;99147.05;1785761;80;20952;-72
2022/01/04 02:38:47;;;;;;;5.17;3.12;;;;;;;7.06;79.05;99144.66;1785325;80;21139;-72
2022/01/04 02:41:14;;;;;;;5.17;2.47;;;;;;;7.04;79.07;99142.28;1785792;80;20991;-72
2022/01/04 02:43:40;;;;;;;4.00;2.30;;;;;;;7.04;79.18;99149.42;1785404;80;21015;-72
2022/01/04 02:46:07;;;;;;;4.30;2.12;;;;;;;7.04;79.12;99144.11;1785480;80;21173;-72
2022/01/04 02:48:42;;;;;;;3.70;2.35;;;;;;;7.06;79.11;99142.00;1785517;80;20995;-72
2022/01/04 02:51:11;;;;;;;3.52;2.10;;;;;;;7.06;78.99;99135.36;1785304;80;21110;-71
2022/01/04 02:53:37;;;;;;;3.70;2.10;;;;;;;7.06;78.94;99138.02;1785275;80;21122;-72
2022/01/04 02:56:05;;;;;;;4.28;1.80;;;;;;;7.06;78.89;99139.34;1785540;80;21006;-72
2022/01/04 02:58:32;;;;;;;3.92;2.20;;;;;;;7.02;78.80;99131.66;1785352;80;20959;-72
2022/01/04 03:00:58;;;;;;;4.55;2.35;;;;;;;7.02;78.66;99143.06;1785724;80;21482;-71
2022/01/04 03:03:27;;;;;;;3.58;1.82;;;;;;;7.01;78.56;99143.34;1785472;80;21141;-71
2022/01/04 03:05:53;;;;;;;3.58;1.75;;;;;;;6.98;78.38;99144.67;1785618;80;21007;-72
2022/01/04 03:08:21;;;;;;;3.70;1.62;;;;;;;6.96;78.26;99148.65;1785490;80;21043;-72
2022/01/04 03:10:49;;;;;;;4.45;1.90;;;;;;;6.93;78.17;99150.52;1785269;80;20976;-71
2022/01/04 03:13:16;;;;;;;3.62;1.82;;;;;;;6.90;78.12;99153.70;1785450;80;21031;-71
2022/01/04 03:15:45;;;;;;;3.92;2.08;;;;;;;6.87;78.04;99160.33;1785345;80;21157;-71
2022/01/04 03:18:11;;;;;;;4.10;2.22;;;;;;;6.86;78.02;99165.91;1785134;80;21003;-71
2022/01/04 03:20:39;;;;;;;3.80;1.92;;;;;;;6.85;78.00;99161.14;1785403;80;20984;-71
2022/01/04 03:23:09;;;;;;;4.08;1.77;;;;;;;6.88;77.94;99171.73;1785550;80;21004;-72
2022/01/04 03:25:36;;;;;;;2.85;1.47;;;;;;;6.90;77.79;99171.73;1785269;80;21043;-71
2022/01/04 03:28:06;;;;;;;2.83;1.30;;;;;;;6.91;77.71;99167.22;1785071;80;21125;-71
2022/01/04 03:30:34;;;;;;;3.12;1.40;;;;;;;6.88;77.64;99164.59;1785291;80;21066;-71
2022/01/04 03:33:01;;;;;;;5.00;1.40;;;;;;;6.86;77.66;99165.38;1785198;80;21094;-71
2022/01/04 03:35:28;;;;;;;3.08;1.30;;;;;;;6.85;77.69;99165.13;1785198;80;21597;-71
2022/01/04 03:37:55;;;;;;;3.10;1.20;;;;;;;6.84;77.70;99168.03;1785450;80;21036;-72
2022/01/04 03:40:22;;;;;;;2.30;1.20;;;;;;;6.82;77.77;99166.98;1785411;80;21137;-70
2022/01/04 03:42:50;;;;;;;4.10;1.40;;;;;;;6.83;77.86;99179.17;1785153;80;21036;-72
2022/01/04 03:45:17;;;;;;;2.72;1.30;;;;;;;6.81;77.88;99182.11;1785593;80;21537;-71
2022/01/04 03:47:44;;;;;;;3.20;1.42;;;;;;;6.77;78.03;99185.01;1785648;80;21059;-72
2022/01/04 03:50:10;;;;;;;3.85;1.42;;;;;;;6.76;78.09;99184.75;1784256;79;20928;-71
2022/01/04 03:52:37;;;;;;;3.95;1.57;;;;;;;6.76;78.13;99208.64;1783689;80;21907;-71
2022/01/04 03:55:06;;;;;;;5.00;2.35;;;;;;;6.78;78.14;99209.71;1783522;80;21062;-71
2022/01/04 03:57:35;;;;;;;4.75;2.50;;;;;;;6.80;78.12;99200.41;1783995;80;21007;-71
2022/01/04 04:00:05;;;;;;;4.47;2.17;;;;;;;6.84;77.99;99206.52;1783704;80;21011;-71
2022/01/04 04:02:33;;;;;;;6.05;2.83;;;;;;;6.85;77.91;99209.45;1783328;80;20960;-71
2022/01/04 04:05:00;;;;;;;5.25;1.67;;;;;;;6.85;77.82;99219.53;1783965;80;21575;-71
2022/01/04 04:07:28;;;;;;;5.00;2.00;;;;;;;6.84;77.74;99216.59;1783618;80;20991;-71
2022/01/04 04:09:55;;;;;;;6.85;2.62;;;;;;;6.81;77.75;99223.25;1783621;80;21058;-71
2022/01/04 04:12:23;;;;;;;4.00;1.85;;;;;;;6.84;77.74;99226.41;1783877;80;20984;-71
2022/01/04 04:14:51;;;;;;;4.78;2.12;;;;;;;6.85;77.70;99216.87;1783625;80;20999;-70
2022/01/04 04:17:19;;;;;;;4.60;1.92;;;;;;;6.88;77.60;99221.66;1783646;80;21155;-70
2022/01/04 04:19:45;;;;;;;5.33;2.20;;;;;;;6.90;77.60;99217.39;1783631;80;21051;-70
2022/01/04 04:22:12;;;;;;;3.65;1.80;;;;;;;6.92;77.54;99221.92;1783694;80;21102;-70
2022/01/04 04:24:41;;;;;;;6.60;2.55;;;;;;;6.96;77.44;99228.28;1783560;80;21051;-70
2022/01/04 04:27:08;;;;;;;5.22;2.35;;;;;;;6.96;77.33;99234.39;1783671;80;21020;-70
2022/01/04 04:29:35;;;;;;;6.35;2.37;;;;;;;7.00;77.29;99231.99;1783776;80;21463;-71
2022/01/04 04:32:01;;;;;;;7.00;2.85;;;;;;;7.00;77.27;99233.33;1783697;80;21035;-71
2022/01/04 04:34:28;;;;;;;4.72;2.08;;;;;;;7.00;77.35;99244.73;1783662;80;20952;-70
2022/01/04 04:36:55;;;;;;;5.83;2.35;;;;;;;7.01;77.57;99241.58;1783589;80;20976;-70
2022/01/04 04:39:22;;;;;;;6.30;3.02;;;;;;;7.02;77.67;99245.81;1783704;80;21067;-70
2022/01/04 04:41:49;;;;;;;4.28;1.70;;;;;;;7.01;77.80;99246.88;1783648;80;21155;-71
2022/01/04 04:44:16;;;;;;;5.60;3.15;;;;;;;6.99;78.14;99243.69;1783517;80;20948;-71
2022/01/04 04:46:43;;;;;;;7.45;5.17;;;;;;;6.97;78.46;99244.47;1783628;80;20964;-71
2022/01/04 04:49:10;;;;;;;12.28;8.05;;;;;;;6.94;78.66;99248.48;1784971;79;21042;-70
2022/01/04 04:51:37;;;;;;;7.75;5.35;;;;;;;6.89;78.92;99250.31;1785222;80;21105;-70
2022/01/04 04:54:04;;;;;;;8.13;6.35;;;;;;;6.87;79.06;99251.10;1785227;80;21995;-70
2022/01/04 04:56:31;;;;;;;5.05;3.58;;;;;;;6.85;79.29;99251.91;1785254;80;21525;-71
2022/01/04 04:58:58;;;;;;;4.35;2.17;;;;;;;6.83;79.46;99252.70;1785238;80;21058;-70
2022/01/04 05:01:25;;;;;;;3.25;1.87;;;;;;;6.82;79.71;99251.91;1785272;80;21007;-71
2022/01/04 05:03:52;;;;;;;4.58;1.70;;;;;;;6.85;79.82;99252.70;1785374;80;21003;-71
2022/01/04 05:06:20;;;;;;;4.55;2.02;;;;;;;6.87;79.99;99257.20;1785444;80;21152;-70
2022/01/04 05:08:47;;;;;;;3.42;1.77;;;;;;;6.85;80.17;99258.02;1785122;80;21688;-71
2022/01/04 05:11:15;;;;;;;3.65;1.90;;;;;;;6.85;80.26;99263.86;1785352;80;20983;-72
2022/01/04 05:13:55;;;;;;;4.10;2.10;;;;;;;6.84;80.33;99268.87;1785274;80;21435;-71
2022/01/04 05:16:28;;;;;;;3.77;1.90;;;;;;;6.83;80.48;99275.26;1785191;80;21444;-72
2022/01/04 05:18:55;;;;;;;3.58;2.27;;;;;;;6.79;80.60;99277.11;1785159;80;21162;-71
2022/01/04 05:21:34;;;;;;;5.45;2.40;;;;;;;6.83;80.74;99280.03;1785273;80;20987;-71
2022/01/04 05:24:05;;;;;;;4.20;2.55;;;;;;;6.84;80.82;99272.33;1785385;80;20993;-71
2022/01/04 05:26:37;;;;;;;5.10;3.00;;;;;;;6.86;80.93;99278.18;1785209;80;21502;-71
2022/01/04 05:29:16;;;;;;;4.55;3.02;;;;;;;6.86;80.98;99279.51;1785220;80;21026;-71
2022/01/04 05:38:53;;;;;;;4.65;3.12;;;;;;;6.87;81.33;99290.38;1801672;77;21056;-70
2022/01/04 05:41:21;;;;;;;5.90;3.85;;;;;;;6.88;81.40;99289.84;1817983;78;21031;-70
2022/01/04 05:43:49;;;;;;;5.15;3.50;;;;;;;6.90;81.39;99294.38;1818488;78;21043;-70
2022/01/04 05:46:16;;;;;;;6.45;3.77;;;;;;;6.90;81.36;99291.72;1816893;79;21068;-70
2022/01/04 05:48:43;;;;;;;7.40;4.35;;;;;;;6.90;81.34;99297.81;1816820;79;20992;-70
2022/01/04 05:51:10;;;;;;;6.60;4.55;;;;;;;6.89;81.33;99305.52;1816994;79;21457;-70
2022/01/04 05:53:37;;;;;;;7.35;4.37;;;;;;;6.89;81.35;99300.75;1808640;78;21046;-71
2022/01/04 05:56:04;;;;;;;6.05;4.00;;;;;;;6.88;81.40;99316.39;1794399;78;20943;-71
2022/01/04 05:58:31;;;;;;;6.28;4.10;;;;;;;6.86;81.48;99316.66;1819119;78;21536;-71
2022/01/04 06:00:58;;;;;;;6.28;4.33;;;;;;;6.86;81.56;99318.52;1819391;78;20932;-71
2022/01/04 06:03:26;;;;;;;5.17;3.70;;;;;;;6.86;81.58;99318.52;1818201;78;21101;-70
2022/01/04 06:05:54;;;;;;;6.00;4.05;;;;;;;6.85;81.61;99325.70;1818422;78;21026;-71
2022/01/04 06:08:21;;;;;;;6.22;4.20;;;;;;;6.87;81.66;99325.42;1819526;78;21042;-70
2022/01/04 06:10:54;;;;;;;5.47;4.03;;;;;;;6.89;81.61;99316.67;1818944;78;21015;-70
2022/01/04 06:16:08;;;;;;;5.62;4.08;;;;;;;6.95;81.46;99333.67;1818468;78;21065;-70
2022/01/04 06:18:34;;;;;;;7.20;4.65;;;;;;;6.95;81.38;99333.67;1818983;78;20944;-71
2022/01/04 06:21:02;;;;;;;5.35;4.25;;;;;;;6.95;81.28;99335.53;1819066;78;21022;-71
2022/01/04 06:23:28;;;;;;;6.83;4.10;;;;;;;6.90;81.23;99333.65;1819133;78;21123;-71
2022/01/04 06:25:56;;;;;;;5.85;4.20;;;;;;;6.92;81.14;99338.18;1818501;78;20936;-70
2022/01/04 06:28:24;;;;;;;7.45;4.47;;;;;;;6.92;80.98;99334.73;1819037;78;20976;-71
2022/01/04 06:30:51;;;;;;;6.70;4.25;;;;;;;6.91;80.84;99336.59;1828437;77;20983;-72
2022/01/04 06:33:20;;;;;;;8.18;4.90;;;;;;;6.91;80.69;99347.21;1852400;77;21560;-69
2022/01/04 06:35:48;;;;;;;5.70;4.50;;;;;;;6.92;80.55;99346.67;1852931;77;21099;-70
2022/01/04 06:38:15;;;;;;;7.22;4.50;;;;;;;6.92;80.41;99348.01;1852657;77;20988;-71
2022/01/04 06:40:41;;;;;;;6.05;4.45;;;;;;;6.94;80.27;99357.81;1852810;77;21031;-71
2022/01/04 06:43:08;;;;;;;5.72;4.58;;;;;;;6.94;80.16;99356.48;1852810;77;20984;-70
2022/01/04 06:45:36;;;;;;;5.78;4.70;;;;;;;6.94;80.03;99356.48;1852840;77;21418;-70
2022/01/04 06:48:04;;;;;;;6.00;4.45;;;;;;;6.95;79.97;99359.43;1852514;77;21793;-70
2022/01/04 06:50:32;;;;;;;6.30;4.72;;;;;;;6.98;79.90;99362.89;1852656;77;21015;-70
2022/01/04 06:52:59;;;;;;;5.67;4.30;;;;;;;6.97;79.84;99360.73;1852812;77;21462;-71
2022/01/04 06:55:26;;;;;;;7.55;4.62;;;;;;;7.00;79.77;99368.72;1852604;77;21027;-70
2022/01/04 06:57:54;;;;;;;7.65;4.30;;;;;;;6.99;79.67;99365.80;1829640;77;21070;-71
2022/01/04 07:00:20;;;;;;;6.30;4.60;;;;;;;6.99;79.63;99363.14;1818508;78;21062;-71
2022/01/04 07:02:47;;;;;;;6.92;4.20;;;;;;;7.02;79.62;99367.94;1819290;78;20932;-70
2022/01/04 07:05:14;;;;;;;6.75;4.60;;;;;;;7.05;79.58;99366.09;1819182;78;21003;-70
2022/01/04 07:07:42;;;;;;;6.00;4.20;;;;;;;7.07;79.54;99367.92;1818938;78;21117;-71
2022/01/04 07:10:09;;;;;;;6.28;4.42;;;;;;;7.09;79.52;99367.15;1819380;78;21081;-70
2022/01/04 07:12:36;;;;;;;6.25;4.75;;;;;;;7.12;79.48;99374.59;1819298;78;21065;-72
2022/01/04 07:15:06;;;;;;;6.58;4.53;;;;;;;7.13;79.43;99375.38;1818968;78;20928;-71
2022/01/04 07:17:39;;;;;;;6.15;4.33;;;;;;;7.14;79.42;99369.83;1819216;78;21478;-71
2022/01/04 07:20:07;;;;;;;6.15;4.95;;;;;;;7.14;79.38;99364.52;1819587;78;21049;-71
2022/01/04 07:22:35;;;;;;;6.60;4.97;;;;;;;7.12;79.36;99367.16;1819210;78;21415;-71
2022/01/04 07:25:04;;;;;;;7.20;4.75;;;;;;;7.13;79.36;99377.50;1819422;78;21494;-70
2022/01/04 07:27:33;;;;;;;7.15;4.40;;;;;;;7.13;79.35;99382.81;1819263;78;20955;-70
2022/01/04 07:29:59;;;;;;;7.58;4.50;;;;;;;7.16;79.30;99383.62;1818398;78;20979;-70
2022/01/04 07:32:26;;;;;;;7.75;5.00;;;;;;;7.20;79.23;99375.92;1817446;79;21439;-70
2022/01/04 07:34:53;;;;;;;6.67;4.78;;;;;;;7.21;79.04;99377.00;1817663;79;20935;-73
2022/01/04 07:37:21;;;;;;;7.00;4.85;;;;;;;7.23;78.80;99379.38;1817620;79;21131;-72
2022/01/04 07:39:51;;;;;;;8.10;4.65;;;;;;;7.23;78.63;99380.17;1817366;79;21046;-71
2022/01/04 07:42:19;;;;;;;6.40;4.50;;;;;;;7.25;78.49;99378.59;1818002;79;21039;-71
2022/01/04 07:44:47;;;;;;;6.65;4.50;;;;;;;7.26;78.20;99382.84;1817478;79;20964;-71
2022/01/04 07:47:13;;;;;;;5.92;4.42;;;;;;;7.24;77.92;99382.33;1817826;79;20932;-71
2022/01/04 07:49:41;;;;;;;8.20;5.42;;;;;;;7.22;77.62;99382.57;1817425;79;21132;-71
2022/01/04 07:52:07;;;;;;;7.20;5.00;;;;;;;7.23;77.47;99388.67;1817446;79;20979;-71
2022/01/04 07:54:34;;;;;;;8.03;5.15;;;;;;;7.20;77.30;99390.53;1817527;79;21035;-71
2022/01/04 07:57:00;;;;;;;7.40;4.37;;;;;;;7.16;77.24;99382.83;1817573;79;20960;-72
2022/01/04 07:59:30;;;;;;;7.55;4.45;;;;;;;7.14;77.24;99385.76;1809929;78;20956;-71
2022/01/04 08:01:57;;;;;;;6.87;4.28;;;;;;;7.14;77.23;99392.39;1804541;77;21102;-71
2022/01/04 08:04:23;;;;;;;6.95;4.47;;;;;;;7.18;77.18;99405.95;1811415;78;20971;-70
2022/01/04 08:06:51;;;;;;;6.60;4.42;;;;;;;7.20;77.11;99412.56;1818194;78;20959;-71
2022/01/04 08:09:19;;;;;;;6.60;4.05;;;;;;;7.25;77.02;99416.57;1816557;77;21042;-71
2022/01/04 08:11:45;;;;;;;8.83;4.03;;;;;;;7.31;76.53;99408.09;1820669;78;21108;-70
2022/01/04 08:14:13;;;;;;;8.95;4.87;;;;;;;7.38;76.34;99407.84;1819739;78;21390;-71
2022/01/04 08:16:40;;;;;;;6.50;3.75;;;;;;;7.41;75.92;99406.77;1821534;78;21033;-71
2022/01/04 08:19:07;;;;;;;5.85;3.85;;;;;;;7.44;75.32;99404.92;1821825;78;21497;-72
2022/01/04 08:21:34;;;;;;;6.37;4.30;;;;;;;7.51;74.97;99402.00;1820640;78;21490;-71
2022/01/04 08:24:01;;;;;;;7.85;4.30;;;;;;;7.56;74.63;99405.98;1819582;78;21022;-70
2022/01/04 08:26:29;;;;;;;7.40;4.20;;;;;;;7.59;74.19;99407.31;1817995;78;21124;-70
2022/01/04 08:28:55;;;;;;;6.67;3.83;;;;;;;7.63;74.03;99407.84;1818054;78;20991;-71
2022/01/04 08:31:24;;;;;;;7.67;3.75;;;;;;;7.68;73.86;99397.22;1817478;79;21018;-70
2022/01/04 08:33:54;;;;;;;5.87;3.80;;;;;;;7.76;73.46;99398.54;1817184;79;21066;-72
2022/01/04 08:36:27;;;;;;;7.87;4.05;;;;;;;7.82;72.96;99396.69;1817588;79;21430;-71
2022/01/04 08:38:54;;;;;;;7.70;3.87;;;;;;;7.81;72.68;99395.89;1817676;79;21085;-71
2022/01/04 08:41:27;;;;;;;7.15;3.85;;;;;;;7.80;72.49;99396.14;1817453;79;20952;-71
2022/01/04 08:44:15;;;;;;;6.83;3.83;;;;;;;7.75;72.28;99396.95;1817079;78;21506;-71
2022/01/04 08:46:42;;;;;;;8.43;3.90;;;;;;;7.73;72.14;99405.20;1815080;78;20991;-72
2022/01/04 08:49:09;;;;;;;7.05;3.77;;;;;;;7.82;72.24;99400.67;1769987;80;38215;-71
2022/01/04 08:51:36;;;;;;;5.92;3.60;;;;;;;7.91;71.93;99389.77;1808393;78;21528;-72
2022/01/04 08:54:04;;;;;;;7.28;3.98;;;;;;;8.01;71.68;99391.63;1819263;78;20943;-72
2022/01/04 08:56:30;;;;;;;6.62;4.17;;;;;;;8.11;71.54;99391.60;1819130;78;21036;-71
2022/01/04 08:58:57;;;;;;;6.85;4.10;;;;;;;8.19;71.27;99394.52;1792082;78;20961;-70
2022/01/04 09:01:24;;;;;;;6.33;3.95;;;;;;;8.26;70.49;99404.06;1819294;78;21005;-71
2022/01/04 09:03:51;;;;;;;7.35;4.30;;;;;;;8.23;70.24;99408.88;1819312;78;21559;-71
2022/01/04 09:06:19;;;;;;;6.87;4.20;;;;;;;8.19;69.92;99415.80;1819078;78;21035;-70
2022/01/04 09:08:50;;;;;;;7.15;4.00;;;;;;;8.15;69.85;99416.05;1819047;78;21114;-71
2022/01/04 09:11:21;;;;;;;7.78;4.30;;;;;;;8.10;69.97;99404.11;1819154;78;21407;-71
2022/01/04 09:13:47;;;;;;;8.73;4.22;;;;;;;8.13;69.96;99422.73;1819148;78;21132;-70
2022/01/04 09:18:46;;;;;;;8.03;4.83;;;;;;;8.16;69.71;99414.19;1818335;78;20947;-71
2022/01/04 09:21:18;;;;;;;7.67;5.12;;;;;;;8.11;69.52;99422.98;1818196;78;20975;-71
2022/01/04 09:23:47;;;;;;;6.78;4.20;;;;;;;8.08;69.62;99426.71;1819695;78;22204;-71
2022/01/04 09:26:17;;;;;;;7.83;4.30;;;;;;;8.09;69.44;99428.30;1818737;77;20932;-71
2022/01/04 09:28:45;;;;;;;7.33;4.40;;;;;;;8.07;69.31;99427.25;1818701;78;21565;-71
2022/01/04 09:31:12;;;;;;;8.88;4.30;;;;;;;8.06;69.19;99434.97;1818862;78;21391;-71
2022/01/04 09:33:39;;;;;;;7.80;4.60;;;;;;;8.06;69.23;99419.02;1819521;78;21042;-71
2022/01/04 09:36:07;;;;;;;6.12;3.92;;;;;;;8.08;69.16;99426.71;1818749;78;20959;-71
2022/01/04 09:38:34;;;;;;;8.00;4.70;;;;;;;8.11;69.04;99420.32;1819251;78;20939;-72
2022/01/04 09:41:01;;;;;;;9.38;5.20;;;;;;;8.12;68.93;99419.25;1819242;78;21149;-71
2022/01/04 09:43:29;;;;;;;8.68;4.80;;;;;;;8.14;68.90;99415.00;1819147;78;21014;-71
2022/01/04 09:45:55;;;;;;;8.65;4.67;;;;;;;8.22;68.91;99414.44;1819179;78;21034;-71
2022/01/04 09:48:22;;;;;;;7.47;4.75;;;;;;;8.28;68.84;99416.56;1819207;78;20964;-71
2022/01/04 09:50:48;;;;;;;8.30;4.78;;;;;;;8.32;68.49;99418.95;1819215;78;21030;-71
2022/01/04 09:53:19;;;;;;;8.75;5.33;;;;;;;8.30;68.28;99422.43;1819403;78;21056;-71
2022/01/04 09:55:51;;;;;;;8.35;5.20;;;;;;;8.25;68.29;99427.20;1817995;78;20939;-70
2022/01/04 09:58:19;;;;;;;8.20;5.33;;;;;;;8.24;68.30;99426.95;1819612;78;20998;-71
2022/01/04 10:00:46;;;;;;;10.20;5.30;;;;;;;8.20;68.08;99426.70;1819383;78;21461;-71
2022/01/04 10:03:17;;;;;;;7.25;5.17;;;;;;;8.21;68.16;99432.27;1819223;78;21066;-71
2022/01/04 10:05:43;;;;;;;11.22;6.15;;;;;;;8.24;68.00;99426.95;1819572;78;21523;-70
2022/01/04 10:08:12;;;;;;;9.88;5.17;;;;;;;8.25;67.89;99419.77;1819304;78;21058;-73
2022/01/04 10:10:40;;;;;;;8.50;5.37;;;;;;;8.23;67.78;99437.34;1819429;78;21038;-71
2022/01/04 10:13:14;;;;;;;8.30;5.70;;;;;;;8.23;67.71;99434.14;1819385;78;21619;-71
2022/01/04 10:15:47;;;;;;;9.93;5.75;;;;;;;8.31;67.78;99435.98;1818989;78;21045;-71
2022/01/04 10:18:23;;;;;;;9.85;6.08;;;;;;;8.38;67.59;99415.24;1819544;78;22140;-70
2022/01/04 10:21:04;;;;;;;9.53;5.72;;;;;;;8.51;67.53;99424.53;1819449;78;21197;-70
2022/01/04 10:23:32;;;;;;;9.38;5.42;;;;;;;8.60;67.19;99417.05;1819462;78;20999;-71
2022/01/04 10:26:06;;;;;;;9.38;4.97;;;;;;;8.65;66.89;99416.22;1773720;80;21551;-71
2022/01/04 10:28:42;;;;;;;8.75;5.17;;;;;;;8.65;66.52;99425.53;1787244;80;21644;-71
2022/01/04 10:31:12;;;;;;;9.63;5.42;;;;;;;8.63;66.37;99422.36;1787263;79;21944;-71
2022/01/04 10:33:38;;;;;;;8.98;5.60;;;;;;;8.60;66.36;99421.58;1787051;80;21050;-72
2022/01/04 10:36:14;;;;;;;9.20;5.37;;;;;;;8.58;66.39;99420.50;1787050;79;20979;-72
2022/01/04 10:38:43;;;;;;;9.40;5.33;;;;;;;8.58;66.34;99428.48;1787110;80;21454;-72
2022/01/04 10:41:20;;;;;;;9.55;5.55;;;;;;;8.61;66.35;99441.25;1787039;79;21049;-72
2022/01/04 10:43:51;;;;;;;12.25;5.95;;;;;;;8.61;66.27;99431.14;1787172;80;21505;-72
2022/01/04 10:46:21;;;;;;;8.63;5.28;;;;;;;8.59;66.13;99432.77;1784052;79;20951;-71
2022/01/04 10:48:50;;;;;;;10.28;5.80;;;;;;;8.61;66.15;99439.92;1787236;80;21038;-71
2022/01/04 10:51:22;;;;;;;8.70;5.40;;;;;;;8.58;66.12;99444.45;1787081;80;20987;-71
2022/01/04 10:53:54;;;;;;;;;;;;;;;8.55;66.07;99436.22;1790065;80;21054;-71
2022/01/04 10:56:33;;;;;;;7.80;5.15;;;;;;;8.49;65.91;99442.11;1787657;79;22091;-71
2022/01/04 10:59:07;;;;;;;10.55;5.37;;;;;;;8.46;66.01;99438.66;1787008;80;20947;-72
2022/01/04 11:01:46;;;;;;;15.18;6.37;;;;;;;8.44;66.13;99434.91;1788754;78;21434;-71
2022/01/04 11:04:21;;;;;;;10.55;6.03;;;;;;;8.40;65.91;99442.39;1815351;78;21470;-71
2022/01/04 11:06:49;;;;;;;8.38;5.08;;;;;;;8.33;65.95;99432.00;1819263;78;21368;-71
2022/01/04 11:09:16;;;;;;;9.23;4.95;;;;;;;8.31;65.88;99435.98;1819407;78;21278;-71
2022/01/04 11:11:44;;;;;;;11.22;4.92;;;;;;;8.27;65.41;99430.95;1819135;78;20931;-71
2022/01/04 11:14:12;;;;;;;10.32;4.97;;;;;;;8.26;65.16;99441.30;1819594;78;21034;-72
2022/01/04 11:16:41;;;;;;;10.15;5.03;;;;;;;8.25;64.96;99430.41;1819201;78;20947;-71
2022/01/04 11:19:08;;;;;;;11.08;4.50;;;;;;;8.22;64.63;99437.05;1819267;78;21085;-71
2022/01/04 11:21:37;;;;;;;9.28;4.70;;;;;;;8.25;64.56;99426.42;1819468;78;21127;-71
2022/01/04 11:24:07;;;;;;;12.23;5.10;;;;;;;8.30;64.41;99425.09;1819187;77;20932;-71
2022/01/04 11:26:34;;;;;;;9.53;4.90;;;;;;;8.32;64.28;99425.59;1819480;78;21082;-71
2022/01/04 11:29:00;;;;;;;8.35;4.80;;;;;;;8.32;64.19;99429.59;1819213;78;21046;-71
2022/01/04 11:32:03;;;;;;;8.80;5.12;;;;;;;8.31;64.32;99443.97;1819203;78;21530;-72
2022/01/04 11:35:09;;;;;;;11.48;5.72;;;;;;;8.30;64.39;99430.41;1819190;78;20967;-72
2022/01/04 11:37:38;;;;;;;10.28;6.83;;;;;;;8.30;64.60;99430.41;1818922;78;20940;-70
2022/01/04 11:40:34;;;;;;;11.68;7.35;;;;;;;8.32;64.86;99428.26;1819283;78;21038;-70
2022/01/04 11:43:03;;;;;;;15.40;8.18;;;;;;;8.35;64.94;99432.50;1819335;78;20990;-70
2022/01/04 11:45:41;;;;;;;14.05;9.30;;;;;;;8.36;65.07;99432.00;1819320;78;20986;-71
2022/01/04 11:48:31;;;;;;;11.95;7.97;;;;;;;8.37;65.11;99433.58;1819466;78;21861;-71
2022/01/04 11:51:08;;;;;;;9.30;5.85;;;;;;;8.42;65.21;99427.75;1819127;78;21117;-72
2022/01/04 11:53:36;;;;;;;12.18;6.87;;;;;;;8.52;65.24;99433.55;1819383;78;20991;-71
2022/01/04 11:56:08;;;;;;;9.83;6.25;;;;;;;8.56;65.21;99437.30;1819664;78;20959;-71
2022/01/04 11:58:50;;;;;;;10.95;6.10;;;;;;;8.60;65.30;99441.54;1819686;78;20944;-71
2022/01/04 12:01:27;;;;;;;8.40;5.17;;;;;;;8.65;65.26;99442.84;1819986;78;22184;-71
2022/01/04 12:03:54;;;;;;;10.88;5.95;;;;;;;8.64;65.24;99446.04;1818464;78;20936;-71